Denver International Airport
KDEN : now visible

Aeroporto :











RITROVATECI SU...

 
LOGIN :

Iscrizione | Disclaimer

   EN    FR    IT 

 









Sommario :    VFR   VFR Marginale   IFR   IFR Intensivo   IFR Molto Intensivo
Visibilità : 
Base nubi : 
>= 8 km
>= 3000ft
5 / 8 km
1000 / 3000 ft
1500m / 5 km
500 / 1000 ft
800 / 1500m
200 / 500 ft
< 800m
< 200 ft
Simboli :   Temporali  Nebbia  Neve Forte  Precipitazioni Forti  Vento > 20 kt







- Altitudine del aeroporto : 5431 ft
- Codice IATA : DEN


KDEN - Denver International

ULTIMO METAR :
  • 241053Z 15006KT 10SM SCT160 SCT220 13/11 A3005 RMK AO2 SLP104 T01330106

METARs OBSOLETI :
  • 240953Z 11010G18KT 10SM BKN160 BKN220 16/10 A3006 RMK AO2 SLP098 T01560100
  • 240853Z 11012KT 10SM SCT180 SCT220 16/09 A3007 RMK AO2 SLP094 T01560094 50002

TAF KDEN
Valido dal 24 a 12 ore il 25 a 18 ore UTC


241120Z 2412/2518 16008KT P6SM FEW120
FM241300 31008KT P6SM FEW200
FM241700 02010KT P6SM FEW100
FM250000 12008KT P6SM SCT100
FM250400 22011KT P6SM SKC
FM251500 29013KT P6SM FEW120
Nessun NOTAM noto per questo aeroporto.



MetMap, La meteo Aeronautica in un colpo d'occhio ! - Copyright ORBIFLY Dicembre 2007 - Disclaimer

ORBIFLY MET'MAP TEAM :

Programmazione e sviluppo : Alexandra Zaïnal
Concezione e sviluppo : Baudouin d'Aumeries
Co-Programmazione e sviluppo : Marc-Olivier Méhu
Supporto tecnico e logistico : Manuel Goepfert
Aiuto per la traduzione : Arnaldo La Scala

Contatto : metmap@orbifly.com




FONTI E CREDITI :

   NOAA       Earth
Advisory